Time;durP1;ratioP1;P1;durP2;ratioP2;P2;SDS_P1;SDS_P2;PMS_P1;PMS_P2;Temp;Humidity;BMP_temperature;BMP_pressure;BME280_temperature;BME280_humidity;BME280_pressure;Samples;Min_cycle;Max_cycle;Signal;HPM_P1;HPM_P2
2021/03/07 00:00:23;;;;;;;;;;;-1.80;64.70;;;;;;5027799;28;20107;-71
2021/03/07 00:02:50;;;;;;;26.48;9.43;;;-1.80;65.10;;;;;;5027101;28;20317;-70
2021/03/07 00:05:16;;;;;;;20.45;7.80;;;-1.90;65.50;;;;;;5027826;28;20108;-71
2021/03/07 00:07:45;;;;;;;;;;;-2.00;65.80;;;;;;5027950;28;20105;-69
2021/03/07 00:10:13;;;;;;;15.30;6.28;;;-2.00;65.90;;;;;;5026802;28;19939;-70
2021/03/07 00:12:39;;;;;;;18.05;6.45;;;-2.00;66.40;;;;;;5027214;28;20033;-70
2021/03/07 00:15:07;;;;;;;13.93;6.68;;;-2.00;66.30;;;;;;5026025;28;20025;-70
2021/03/07 00:17:33;;;;;;;16.08;6.20;;;-2.10;66.50;;;;;;5026706;28;20091;-70
2021/03/07 00:19:59;;;;;;;;;;;-2.10;67.10;;;;;;5026556;28;20428;-70
2021/03/07 00:22:24;;;;;;;9.07;3.85;;;-2.10;67.20;;;;;;5027072;28;19909;-70
2021/03/07 00:24:50;;;;;;;;;;;-2.20;67.10;;;;;;5027583;28;20112;-71
2021/03/07 00:27:16;;;;;;;13.68;4.45;;;-2.20;67.60;;;;;;5027272;28;19935;-71
2021/03/07 00:29:41;;;;;;;;;;;-2.20;67.70;;;;;;5027649;28;20029;-70
2021/03/07 00:32:07;;;;;;;9.10;3.83;;;-2.20;67.60;;;;;;5026622;28;20004;-70
2021/03/07 00:34:32;;;;;;;;;;;-2.20;67.70;;;;;;5027793;28;20108;-70
2021/03/07 00:36:58;;;;;;;11.85;5.03;;;-2.30;67.90;;;;;;5026915;28;19956;-70
2021/03/07 00:39:23;;;;;;;;;;;-2.30;68.20;;;;;;5026098;28;20040;-70
2021/03/07 00:41:49;;;;;;;12.43;4.97;;;-2.40;68.20;;;;;;5026026;28;19909;-70
2021/03/07 00:44:15;;;;;;;;;;;-2.30;68.20;;;;;;5027533;28;20105;-70
2021/03/07 00:46:43;;;;;;;12.88;4.07;;;-2.40;68.20;;;;;;5024360;28;19998;-71
2021/03/07 00:49:09;;;;;;;10.23;3.60;;;-2.30;68.10;;;;;;5027015;28;20029;-71
2021/03/07 00:51:35;;;;;;;14.82;3.30;;;-2.30;68.00;;;;;;5026717;28;20037;-70
2021/03/07 00:54:01;;;;;;;;;;;-2.30;68.20;;;;;;5027291;28;20092;-70
2021/03/07 00:56:26;;;;;;;9.63;3.75;;;-2.30;68.50;;;;;;5026422;28;19917;-70
2021/03/07 00:58:52;;;;;;;9.98;3.28;;;-2.30;68.00;;;;;;5026900;28;20553;-71
2021/03/07 01:01:18;;;;;;;;;;;-2.30;67.80;;;;;;5025089;28;20040;-71
2021/03/07 01:03:44;;;;;;;9.07;2.90;;;-2.30;67.70;;;;;;5026626;28;20019;-70
2021/03/07 01:06:10;;;;;;;7.18;2.92;;;-2.30;67.60;;;;;;5026394;28;20211;-70
2021/03/07 01:08:35;;;;;;;;;;;-2.30;67.50;;;;;;5027191;28;20486;-71
2021/03/07 01:11:01;;;;;;;13.25;5.65;;;-2.30;67.60;;;;;;5026374;28;19959;-70
2021/03/07 01:13:26;;;;;;;24.70;8.65;;;-2.30;67.50;;;;;;5025057;28;20129;-70
2021/03/07 01:15:52;;;;;;;;;;;-2.30;67.60;;;;;;5026436;28;20033;-70
2021/03/07 01:18:18;;;;;;;9.23;3.35;;;-2.40;67.60;;;;;;5025104;28;19909;-71
2021/03/07 01:20:45;;;;;;;;;;;-2.40;68.00;;;;;;5026416;28;20043;-70
2021/03/07 01:23:12;;;;;;;6.57;2.45;;;-2.40;68.10;;;;;;5024439;28;19955;-70
2021/03/07 01:25:38;;;;;;;7.95;3.60;;;-2.40;68.40;;;;;;5024624;28;20080;-69
2021/03/07 01:28:04;;;;;;;;;;;-2.40;68.20;;;;;;5025427;28;20053;-70
2021/03/07 01:30:32;;;;;;;10.27;3.30;;;-2.50;68.50;;;;;;5025782;28;19917;-70
2021/03/07 01:32:58;;;;;;;7.53;2.28;;;-2.50;68.40;;;;;;5024364;28;20429;-71
2021/03/07 01:35:24;;;;;;;;;;;-2.40;68.90;;;;;;5026832;28;20022;-69
2021/03/07 01:37:50;;;;;;;22.20;8.38;;;-2.40;68.90;;;;;;5026306;28;19948;-71
2021/03/07 01:40:25;;;;;;;38.65;15.18;;;-2.40;69.00;;;;;;5026259;28;20025;-70
2021/03/07 01:42:53;;;;;;;39.50;15.25;;;-2.40;69.10;;;;;;5024604;28;20033;-71
2021/03/07 01:45:23;;;;;;;29.92;12.10;;;-2.40;69.10;;;;;;5025457;28;20053;-71
2021/03/07 01:47:54;;;;;;;20.38;8.45;;;-2.50;69.10;;;;;;5025603;28;20489;-71
2021/03/07 01:50:26;;;;;;;20.60;8.07;;;-2.50;69.20;;;;;;5025679;28;20057;-71
2021/03/07 01:52:52;;;;;;;12.52;5.22;;;-2.50;69.10;;;;;;5025632;28;20036;-71
2021/03/07 01:55:19;;;;;;;;;;;-2.50;69.10;;;;;;5026308;28;20033;-71
2021/03/07 01:57:47;;;;;;;;;;;-2.50;68.70;;;;;;5025035;28;19909;-70
2021/03/07 02:00:13;;;;;;;13.57;4.75;;;-2.50;68.90;;;;;;5024638;28;19908;-71
2021/03/07 02:02:39;;;;;;;12.07;4.50;;;-2.60;68.80;;;;;;5024137;28;20768;-71
2021/03/07 02:05:26;;;;;;;;;;;-2.70;69.00;;;;;;5026131;28;20043;-70
2021/03/07 02:07:52;;;;;;;23.45;7.93;;;-2.70;69.70;;;;;;5024705;28;20318;-70
2021/03/07 02:10:42;;;;;;;27.02;8.90;;;-2.80;70.10;;;;;;5025931;28;20442;-69
2021/03/07 02:13:18;;;;;;;33.35;11.15;;;-2.90;70.40;;;;;;5025856;28;20029;-70
2021/03/07 02:15:47;;;;;;;35.55;12.23;;;-2.90;70.50;;;;;;5025824;28;20021;-72
2021/03/07 02:18:13;;;;;;;33.08;11.93;;;-3.00;70.70;;;;;;5024647;28;20136;-70
2021/03/07 02:21:05;;;;;;;27.80;10.90;;;-3.00;71.30;;;;;;5025276;28;20053;-71
2021/03/07 02:23:35;;;;;;;25.70;10.23;;;-3.00;71.30;;;;;;5024787;28;20045;-70
2021/03/07 02:26:03;;;;;;;19.52;7.55;;;-3.00;71.10;;;;;;5025792;28;20502;-71
2021/03/07 02:28:29;;;;;;;22.17;7.43;;;-3.00;70.90;;;;;;5025213;28;20124;-71
2021/03/07 02:30:55;;;;;;;;;;;-3.00;71.00;;;;;;5024315;28;20127;-70
2021/03/07 02:33:23;;;;;;;21.27;7.90;;;-3.00;71.40;;;;;;5025726;28;19908;-71
2021/03/07 02:36:08;;;;;;;23.52;6.95;;;-3.10;71.20;;;;;;5029435;28;20033;-69
2021/03/07 02:38:36;;;;;;;11.32;4.40;;;-3.10;71.50;;;;;;5025138;28;20029;-70
2021/03/07 02:41:05;;;;;;;16.95;6.97;;;-3.10;71.50;;;;;;5029101;28;20025;-71
2021/03/07 02:43:37;;;;;;;23.10;8.80;;;-3.20;71.80;;;;;;5028983;28;20413;-71
2021/03/07 02:46:05;;;;;;;19.75;9.07;;;-3.20;72.30;;;;;;5028429;28;20049;-71
2021/03/07 02:48:31;;;;;;;17.85;7.25;;;-3.20;72.40;;;;;;5028975;28;20123;-70
2021/03/07 02:51:00;;;;;;;27.15;9.02;;;-3.20;72.50;;;;;;5028810;28;20120;-70
2021/03/07 02:53:28;;;;;;;23.55;8.80;;;-3.10;72.30;;;;;;5027354;28;20025;-70
2021/03/07 02:56:10;;;;;;;18.02;7.57;;;-3.10;72.30;;;;;;5029261;28;20083;-70
2021/03/07 02:58:39;;;;;;;20.55;8.30;;;-3.10;72.10;;;;;;5029195;28;20059;-70
2021/03/07 03:01:07;;;;;;;19.95;7.60;;;-3.10;72.10;;;;;;5027991;28;20113;-71
2021/03/07 03:03:37;;;;;;;22.35;6.53;;;-3.20;72.60;;;;;;5029895;28;20022;-70
2021/03/07 03:06:03;;;;;;;16.45;7.07;;;-3.20;72.60;;;;;;5028907;28;20052;-70
2021/03/07 03:08:31;;;;;;;14.48;6.10;;;-3.20;72.60;;;;;;5027408;28;20030;-70
2021/03/07 03:10:59;;;;;;;17.88;7.10;;;-3.20;72.60;;;;;;5028486;28;20030;-71
2021/03/07 03:13:26;;;;;;;15.90;6.97;;;-3.20;72.70;;;;;;5027518;28;20033;-70
2021/03/07 03:15:53;;;;;;;16.25;6.47;;;-3.20;72.80;;;;;;5026722;28;20021;-70
2021/03/07 03:18:20;;;;;;;13.13;4.55;;;-3.20;73.00;;;;;;5027370;28;20029;-70
2021/03/07 03:20:51;;;;;;;10.25;4.30;;;-3.20;72.90;;;;;;5027728;28;20025;-69
2021/03/07 03:23:18;;;;;;;11.95;4.57;;;-3.10;73.40;;;;;;5028775;28;20040;-70
2021/03/07 03:25:47;;;;;;;14.63;5.80;;;-3.10;72.30;;;;;;5028483;28;20044;-69
2021/03/07 03:28:13;;;;;;;12.60;6.03;;;-3.00;72.20;;;;;;5027084;28;20040;-70
2021/03/07 03:30:39;;;;;;;13.77;5.25;;;-3.00;72.30;;;;;;5026734;28;20565;-70
2021/03/07 03:33:04;;;;;;;;;;;-3.00;72.10;;;;;;5028199;28;20172;-70
2021/03/07 03:35:30;;;;;;;11.45;4.82;;;-3.10;72.30;;;;;;5026970;28;20373;-70
2021/03/07 03:37:56;;;;;;;;;;;-3.10;72.20;;;;;;5028551;28;20072;-70
2021/03/07 03:40:28;;;;;;;8.90;4.22;;;-3.10;72.20;;;;;;5026826;28;19912;-70
2021/03/07 03:42:58;;;;;;;10.93;5.07;;;-3.10;72.10;;;;;;5028174;28;20022;-69
2021/03/07 03:45:26;;;;;;;9.02;3.75;;;-3.10;72.00;;;;;;5025276;28;20049;-71
2021/03/07 03:47:57;;;;;;;7.45;3.47;;;-3.10;72.00;;;;;;5027917;28;20041;-70
2021/03/07 03:50:26;;;;;;;6.50;2.92;;;-3.10;71.80;;;;;;5026139;28;20029;-72
2021/03/07 03:52:53;;;;;;;6.63;2.72;;;-3.00;71.70;;;;;;5027493;28;20040;-70
2021/03/07 03:55:25;;;;;;;7.30;3.30;;;-3.00;71.20;;;;;;5027469;28;20028;-70
2021/03/07 03:58:03;;;;;;;8.20;3.35;;;-3.00;71.20;;;;;;5026604;28;20029;-70
2021/03/07 04:00:30;;;;;;;8.57;3.10;;;-3.00;71.60;;;;;;5026920;28;20037;-70
2021/03/07 04:02:58;;;;;;;9.77;5.05;;;-3.10;71.90;;;;;;5027488;28;20030;-70
2021/03/07 04:05:26;;;;;;;10.07;5.25;;;-3.10;72.10;;;;;;5027810;28;20026;-70
2021/03/07 04:07:52;;;;;;;26.67;10.35;;;-3.20;72.70;;;;;;5027532;28;20025;-71
2021/03/07 04:10:18;;;;;;;;;;;-3.30;72.30;;;;;;5027801;28;20029;-70
2021/03/07 04:12:46;;;;;;;15.37;6.10;;;-3.30;72.50;;;;;;5027563;28;19909;-71
2021/03/07 04:15:13;;;;;;;13.63;6.25;;;-3.30;72.60;;;;;;5026130;28;20033;-71
2021/03/07 04:17:41;;;;;;;14.07;6.50;;;-3.30;72.10;;;;;;5027325;28;20029;-70
2021/03/07 04:20:07;;;;;;;19.02;9.23;;;-3.30;72.10;;;;;;5027629;28;20107;-70
2021/03/07 04:22:33;;;;;;;21.90;10.98;;;-3.30;71.90;;;;;;5027263;28;20045;-70
2021/03/07 04:24:59;;;;;;;20.10;10.73;;;-3.30;72.20;;;;;;5025198;28;20030;-70
2021/03/07 04:27:25;;;;;;;20.13;8.50;;;-3.30;72.60;;;;;;5027065;28;20029;-69
2021/03/07 04:29:51;;;;;;;;;;;-3.40;72.60;;;;;;5027456;28;20055;-71
2021/03/07 04:32:18;;;;;;;17.15;7.68;;;-3.40;73.10;;;;;;5026952;28;19913;-71
2021/03/07 04:34:45;;;;;;;15.00;7.15;;;-3.40;73.20;;;;;;5026996;28;20029;-71
2021/03/07 04:37:11;;;;;;;16.30;6.97;;;-3.50;73.10;;;;;;5027280;28;20030;-70
2021/03/07 04:39:37;;;;;;;17.98;9.00;;;-3.50;73.30;;;;;;5027251;28;20021;-70
2021/03/07 04:42:04;;;;;;;22.17;8.75;;;-3.60;73.20;;;;;;5027860;28;20672;-70
2021/03/07 04:44:30;;;;;;;18.85;8.95;;;-3.50;73.30;;;;;;5026387;28;20013;-71
2021/03/07 04:46:56;;;;;;;19.15;8.88;;;-3.50;73.40;;;;;;5026755;28;20049;-71
2021/03/07 04:49:22;;;;;;;19.08;10.80;;;-3.50;73.50;;;;;;5026923;28;20083;-70
2021/03/07 04:51:47;;;;;;;;;;;-3.60;73.60;;;;;;5027298;28;20044;-70
2021/03/07 04:54:13;;;;;;;18.50;9.98;;;-3.50;73.60;;;;;;5026857;28;19909;-69
2021/03/07 04:56:38;;;;;;;;;;;-3.50;73.80;;;;;;5026693;28;20033;-70
2021/03/07 04:59:04;;;;;;;14.15;7.82;;;-3.50;74.20;;;;;;5025913;28;19956;-71
2021/03/07 05:01:30;;;;;;;14.88;7.70;;;-3.60;74.00;;;;;;5026799;28;20026;-70
2021/03/07 05:03:55;;;;;;;21.33;8.77;;;-3.50;74.00;;;;;;5026718;28;20513;-70
2021/03/07 05:06:25;;;;;;;;;;;-3.50;74.40;;;;;;5027291;28;20030;-71
2021/03/07 05:08:51;;;;;;;21.27;10.82;;;-3.50;74.50;;;;;;5026454;28;19952;-70
2021/03/07 05:11:17;;;;;;;21.42;10.27;;;-3.50;74.40;;;;;;5024901;28;20095;-70
2021/03/07 05:13:43;;;;;;;24.58;12.98;;;-3.40;74.20;;;;;;5025761;28;20029;-71
2021/03/07 05:16:09;;;;;;;65.38;26.27;;;-3.40;74.00;;;;;;5026475;28;20552;-70
2021/03/07 05:18:35;;;;;;;;;;;-3.40;73.90;;;;;;5027106;28;20083;-70
2021/03/07 05:21:00;;;;;;;39.63;17.43;;;-3.40;73.70;;;;;;5026455;28;19913;-70
2021/03/07 05:23:26;;;;;;;;;;;-3.30;74.00;;;;;;5026324;28;20034;-70
2021/03/07 05:25:52;;;;;;;36.92;18.63;;;-3.30;74.60;;;;;;5026405;28;19917;-70
2021/03/07 05:28:17;;;;;;;;;;;-3.30;74.30;;;;;;5026680;28;20025;-72
2021/03/07 05:30:43;;;;;;;38.00;13.70;;;-3.30;74.30;;;;;;5026392;28;19920;-70
2021/03/07 05:33:08;;;;;;;;;;;-3.20;73.50;;;;;;5026692;28;20494;-71
2021/03/07 05:35:34;;;;;;;29.23;13.88;;;-3.20;73.20;;;;;;5026012;28;19909;-71
2021/03/07 05:38:00;;;;;;;24.67;13.77;;;-3.20;73.10;;;;;;5026505;28;20030;-70
2021/03/07 05:40:26;;;;;;;;;;;-3.20;73.50;;;;;;5027005;28;20034;-70
2021/03/07 05:42:52;;;;;;;30.42;15.73;;;-3.20;73.30;;;;;;5025434;28;20308;-71
2021/03/07 05:45:17;;;;;;;37.72;18.30;;;-3.20;73.40;;;;;;5026063;28;20057;-70
2021/03/07 05:47:43;;;;;;;;;;;-3.10;73.60;;;;;;5026674;28;20805;-70
2021/03/07 05:50:09;;;;;;;28.17;13.48;;;-3.10;73.70;;;;;;5025768;28;20349;-70
2021/03/07 05:52:35;;;;;;;18.90;10.05;;;-3.00;73.40;;;;;;5025749;28;20116;-70
2021/03/07 05:55:02;;;;;;;18.08;9.45;;;-2.90;73.20;;;;;;5025547;28;20026;-70
2021/03/07 05:57:30;;;;;;;22.58;10.43;;;-2.70;73.40;;;;;;5026005;28;20228;-70
2021/03/07 05:59:58;;;;;;;24.75;11.70;;;-2.40;73.00;;;;;;5026155;28;20022;-70
2021/03/07 06:02:23;;;;;;;31.83;13.10;;;-2.00;72.40;;;;;;5025616;28;20548;-70
2021/03/07 06:04:52;;;;;;;;;;;-1.70;71.10;;;;;;5026251;28;20025;-69
2021/03/07 06:07:19;;;;;;;68.93;27.40;;;-1.30;69.90;;;;;;5026064;28;19909;-70
2021/03/07 06:09:45;;;;;;;59.38;23.15;;;-1.00;68.90;;;;;;5025872;28;20494;-70
2021/03/07 06:12:17;;;;;;;;;;;-0.70;67.80;;;;;;5030034;28;20048;-70
2021/03/07 06:14:44;;;;;;;65.72;28.85;;;-0.40;66.90;;;;;;5029508;28;20315;-70
2021/03/07 06:17:13;;;;;;;53.22;25.70;;;-0.10;65.70;;;;;;5029280;28;20555;-70
2021/03/07 06:20:00;;;;;;;51.08;24.10;;;0.30;64.20;;;;;;5029574;28;20095;-70
2021/03/07 06:22:28;;;;;;;49.28;23.15;;;0.60;63.40;;;;;;5029555;28;20021;-70
2021/03/07 06:24:54;;;;;;;42.90;20.02;;;1.00;62.40;;;;;;5029064;28;20044;-71
2021/03/07 06:27:20;;;;;;;;;;;1.40;60.60;;;;;;5029642;28;20037;-71
2021/03/07 06:30:30;;;;;;;56.20;25.65;;;1.80;58.10;;;;;;5028908;28;20341;-70
2021/03/07 06:32:58;;;;;;;37.25;19.88;;;2.50;56.70;;;;;;5029350;28;20411;-71
2021/03/07 06:35:29;;;;;;;33.17;13.88;;;3.10;54.90;;;;;;5028026;28;20030;-70
2021/03/07 06:37:59;;;;;;;21.80;11.13;;;3.60;52.50;;;;;;5029440;28;20029;-71
2021/03/07 06:40:51;;;;;;;24.25;12.77;;;4.20;50.40;;;;;;5027699;28;20025;-70
2021/03/07 06:43:27;;;;;;;20.95;11.07;;;5.00;48.40;;;;;;5028493;28;20041;-71
2021/03/07 06:45:53;;;;;;;18.95;10.32;;;5.50;46.00;;;;;;5038961;28;20053;-71
2021/03/07 06:48:19;;;;;;;15.65;9.20;;;6.10;44.60;;;;;;5028452;28;20056;-72
2021/03/07 06:50:57;;;;;;;;;;;6.80;43.40;;;;;;5029364;28;20553;-71
2021/03/07 06:53:41;;;;;;;11.70;7.43;;;7.30;41.90;;;;;;5027924;28;19905;-72
2021/03/07 06:56:07;;;;;;;13.73;7.57;;;8.30;40.80;;;;;;5027364;28;20038;-71
2021/03/07 06:58:33;;;;;;;;;;;8.80;39.20;;;;;;5027620;28;20091;-71
2021/03/07 07:00:59;;;;;;;14.40;4.63;;;9.30;37.30;;;;;;5028748;28;19912;-70
2021/03/07 07:03:25;;;;;;;;;;;9.80;36.00;;;;;;5029192;28;20029;-71
2021/03/07 07:05:52;;;;;;;5.85;3.25;;;10.20;34.60;;;;;;5028625;28;19920;-71
2021/03/07 07:08:39;;;;;;;5.25;3.00;;;10.50;33.60;;;;;;5028745;28;20068;-69
2021/03/07 07:11:06;;;;;;;6.57;3.65;;;10.70;33.00;;;;;;5028370;28;20371;-71
2021/03/07 07:13:45;;;;;;;6.22;4.20;;;10.90;33.30;;;;;;5027789;28;20065;-70
2021/03/07 07:16:12;;;;;;;7.18;3.97;;;11.40;32.90;;;;;;5027983;28;20105;-71
2021/03/07 07:18:40;;;;;;;6.57;3.42;;;11.70;31.60;;;;;;5026795;28;20132;-71
2021/03/07 07:21:07;;;;;;;6.35;3.00;;;12.00;30.90;;;;;;5028182;28;20052;-72
2021/03/07 07:23:33;;;;;;;6.78;2.95;;;12.10;30.20;;;;;;5028224;28;20128;-72
2021/03/07 07:26:00;;;;;;;;;;;12.50;29.80;;;;;;5027477;28;20128;-71
2021/03/07 07:28:27;;;;;;;6.07;3.22;;;12.70;28.20;;;;;;5027890;28;19909;-71
2021/03/07 07:31:01;;;;;;;4.97;2.78;;;12.70;28.80;;;;;;5027754;28;20124;-71
2021/03/07 07:33:35;;;;;;;5.50;2.95;;;12.90;28.10;;;;;;5028177;28;20506;-71
2021/03/07 07:36:04;;;;;;;6.80;2.92;;;13.20;27.30;;;;;;5028443;28;20063;-71
2021/03/07 07:38:30;;;;;;;4.13;2.22;;;13.40;26.90;;;;;;5026619;28;20018;-71
2021/03/07 07:40:56;;;;;;;5.40;2.90;;;13.50;26.40;;;;;;5026477;28;20029;-70
2021/03/07 07:43:22;;;;;;;;;;;13.50;26.20;;;;;;5028014;28;20485;-70
2021/03/07 07:45:47;;;;;;;7.63;2.65;;;13.50;26.10;;;;;;5035171;28;19925;-70
2021/03/07 07:48:31;;;;;;;;;;;13.40;26.40;;;;;;5031649;28;20502;-70
2021/03/07 07:50:57;;;;;;;5.72;2.85;;;13.10;26.30;;;;;;5026171;28;20160;-71
2021/03/07 07:53:23;;;;;;;;;;;13.50;26.50;;;;;;5028396;28;20036;-70
2021/03/07 07:56:02;;;;;;;5.95;2.97;;;13.60;26.00;;;;;;5027752;28;19909;-71
2021/03/07 07:58:37;;;;;;;7.55;2.78;;;13.50;26.00;;;;;;5026520;28;20033;-71
2021/03/07 08:01:07;;;;;;;8.40;2.97;;;13.40;26.00;;;;;;5026037;28;20076;-71
2021/03/07 08:03:41;;;;;;;5.97;2.72;;;13.30;25.90;;;;;;5035138;28;20197;-71
2021/03/07 08:06:07;;;;;;;5.88;2.28;;;13.30;25.80;;;;;;5035637;28;20029;-71
2021/03/07 08:08:38;;;;;;;3.80;2.20;;;13.30;25.70;;;;;;5034005;28;20055;-71
2021/03/07 08:11:06;;;;;;;8.50;2.75;;;13.10;25.20;;;;;;5034880;28;20440;-71
2021/03/07 08:13:34;;;;;;;4.45;2.22;;;13.00;25.50;;;;;;5035733;28;20768;-71
2021/03/07 08:16:04;;;;;;;4.30;2.28;;;12.90;26.10;;;;;;5035425;28;20115;-71
2021/03/07 08:18:55;;;;;;;4.82;2.83;;;13.30;25.80;;;;;;5036177;28;20078;-71
2021/03/07 08:21:23;;;;;;;5.78;2.10;;;13.50;25.60;;;;;;5037234;28;20029;-71
2021/03/07 08:24:11;;;;;;;6.88;3.03;;;13.90;25.00;;;;;;5034182;28;20021;-70
2021/03/07 08:26:42;;;;;;;3.50;1.88;;;14.20;24.60;;;;;;5034668;28;20053;-71
2021/03/07 08:29:37;;;;;;;6.25;2.28;;;14.30;23.80;;;;;;5024741;28;20041;-71
2021/03/07 08:32:24;;;;;;;3.85;2.30;;;14.30;23.00;;;;;;5025283;28;20059;-70
2021/03/07 08:34:50;;;;;;;7.93;2.65;;;14.00;24.10;;;;;;5024939;28;20746;-70
2021/03/07 08:37:16;;;;;;;;;;;13.90;24.20;;;;;;5027334;28;20037;-71
2021/03/07 08:39:42;;;;;;;6.90;2.42;;;13.80;23.90;;;;;;5025534;28;19909;-69
2021/03/07 08:42:07;;;;;;;4.95;2.50;;;13.60;24.50;;;;;;5026668;28;20065;-71
2021/03/07 08:44:33;;;;;;;;;;;13.60;24.20;;;;;;5026826;28;20055;-71
2021/03/07 08:46:59;;;;;;;4.25;2.40;;;13.80;23.70;;;;;;5025387;28;19913;-71
2021/03/07 08:49:30;;;;;;;6.03;2.53;;;13.70;23.30;;;;;;5026570;28;20025;-71
2021/03/07 08:52:02;;;;;;;5.00;2.40;;;13.70;23.20;;;;;;5024953;28;20038;-72
2021/03/07 08:54:30;;;;;;;4.35;2.70;;;13.60;23.30;;;;;;5026653;28;20134;-71
2021/03/07 08:56:57;;;;;;;6.30;2.83;;;13.60;23.20;;;;;;5025930;28;20624;-71
2021/03/07 08:59:28;;;;;;;6.32;2.70;;;13.40;23.40;;;;;;5026538;28;20022;-71
2021/03/07 09:01:54;;;;;;;5.47;2.58;;;13.40;23.20;;;;;;5025549;28;20562;-71
2021/03/07 09:04:20;;;;;;;6.32;2.75;;;13.30;23.50;;;;;;5026314;28;20074;-72
2021/03/07 09:06:47;;;;;;;5.07;2.90;;;13.20;23.70;;;;;;5024668;28;20033;-71
2021/03/07 09:09:22;;;;;;;5.97;2.80;;;13.30;23.00;;;;;;5026240;28;20025;-71
2021/03/07 09:11:58;;;;;;;6.15;2.78;;;13.50;23.40;;;;;;5026121;28;20076;-70
2021/03/07 09:14:34;;;;;;;5.13;2.40;;;13.70;22.60;;;;;;5026104;28;20029;-70
2021/03/07 09:17:02;;;;;;;4.82;2.75;;;13.80;22.90;;;;;;5024834;28;20033;-71
2021/03/07 09:19:39;;;;;;;5.97;2.78;;;13.50;23.40;;;;;;5026288;28;20037;-71
2021/03/07 09:22:24;;;;;;;4.38;2.63;;;13.20;24.00;;;;;;5025337;28;20033;-70
2021/03/07 09:24:54;;;;;;;4.07;2.38;;;13.60;23.70;;;;;;5024812;28;20083;-71
2021/03/07 09:27:21;;;;;;;7.50;3.30;;;13.90;23.30;;;;;;5025458;28;20033;-72
2021/03/07 09:29:54;;;;;;;4.47;2.53;;;14.00;22.70;;;;;;5025786;28;20079;-71
2021/03/07 09:32:32;;;;;;;6.35;2.75;;;13.90;23.10;;;;;;5026132;28;20029;-71
2021/03/07 09:35:00;;;;;;;12.32;2.75;;;13.80;22.80;;;;;;5024615;28;20179;-70
2021/03/07 09:37:26;;;;;;;10.23;4.50;;;14.20;22.50;;;;;;5024669;28;20418;-71
2021/03/07 09:39:53;;;;;;;4.97;2.80;;;14.00;22.90;;;;;;5025725;28;20026;-70
2021/03/07 09:42:19;;;;;;;5.28;2.80;;;14.10;22.90;;;;;;5025693;28;20029;-71
2021/03/07 09:44:46;;;;;;;22.85;13.43;;;14.10;22.50;;;;;;5028250;28;20053;-71
2021/03/07 09:47:14;;;;;;;10.23;5.85;;;14.10;22.60;;;;;;5030144;28;20030;-71
2021/03/07 09:49:40;;;;;;;11.35;6.18;;;14.00;22.80;;;;;;5028590;28;20059;-71
2021/03/07 09:52:08;;;;;;;6.25;3.03;;;14.00;22.80;;;;;;5028772;28;20450;-71
2021/03/07 09:54:34;;;;;;;8.75;3.28;;;14.20;22.60;;;;;;5030006;28;20105;-71
2021/03/07 09:56:59;;;;;;;5.25;2.90;;;14.70;22.30;;;;;;5028248;28;20116;-71
2021/03/07 09:59:27;;;;;;;8.05;3.10;;;14.60;22.70;;;;;;5030097;28;20101;-71
2021/03/07 10:02:04;;;;;;;4.80;2.53;;;14.80;22.80;;;;;;5028324;28;20074;-71
2021/03/07 10:04:34;;;;;;;4.88;2.65;;;14.90;22.20;;;;;;5033080;28;20021;-70
2021/03/07 10:07:20;;;;;;;6.95;2.65;;;15.00;21.50;;;;;;5049368;28;20091;-72
2021/03/07 10:10:11;;;;;;;8.13;2.50;;;15.20;21.50;;;;;;5048390;28;20021;-71
2021/03/07 10:12:54;;;;;;;4.75;2.40;;;15.40;21.00;;;;;;5049501;28;20037;-72
2021/03/07 10:15:40;;;;;;;9.07;2.53;;;15.30;21.50;;;;;;5049932;28;20037;-71
2021/03/07 10:18:12;;;;;;;15.70;8.60;;;15.40;20.60;;;;;;5048054;28;20067;-71
2021/03/07 10:20:40;;;;;;;5.88;3.90;;;15.40;21.10;;;;;;5048102;28;20659;-71
2021/03/07 10:23:06;;;;;;;5.57;3.05;;;15.50;20.90;;;;;;5049162;28;20055;-72
2021/03/07 10:25:33;;;;;;;4.97;2.40;;;15.50;20.90;;;;;;5049160;28;20509;-71
2021/03/07 10:28:07;;;;;;;6.50;2.85;;;15.50;20.60;;;;;;5049056;28;20337;-71
2021/03/07 10:30:40;;;;;;;5.18;3.00;;;15.40;21.20;;;;;;5049639;28;20029;-74
2021/03/07 10:33:22;;;;;;;5.20;2.88;;;15.50;21.40;;;;;;5049204;28;20029;-71
2021/03/07 10:35:58;;;;;;;5.20;2.88;;;15.30;21.60;;;;;;5048911;28;20037;-71
2021/03/07 10:38:24;;;;;;;4.47;2.58;;;15.60;21.10;;;;;;5047652;28;20025;-71
2021/03/07 10:40:50;;;;;;;6.45;2.65;;;15.70;21.20;;;;;;5046848;28;20452;-71
2021/03/07 10:43:16;;;;;;;4.97;2.50;;;15.80;20.70;;;;;;5049046;28;20443;-70
2021/03/07 10:45:41;;;;;;;9.02;2.80;;;15.40;21.10;;;;;;5048997;28;20102;-71
2021/03/07 10:48:08;;;;;;;;;;;14.50;21.50;;;;;;5047418;28;20025;-70
2021/03/07 10:50:35;;;;;;;5.32;3.03;;;13.40;22.80;;;;;;5047530;28;20003;-71
2021/03/07 10:53:01;;;;;;;4.50;2.65;;;12.60;23.20;;;;;;5048537;28;20041;-71
2021/03/07 10:55:27;;;;;;;;;;;11.90;23.70;;;;;;5048458;28;20029;-71
2021/03/07 10:57:53;;;;;;;7.53;3.03;;;11.20;24.70;;;;;;5047443;28;19930;-70
2021/03/07 11:00:19;;;;;;;;;;;10.70;25.10;;;;;;5047526;28;20024;-70
2021/03/07 11:02:46;;;;;;;7.50;3.50;;;10.40;26.40;;;;;;5048880;28;20408;-70
2021/03/07 11:05:13;;;;;;;6.13;3.38;;;10.20;26.40;;;;;;5048233;28;20044;-73
2021/03/07 11:07:39;;;;;;;7.68;3.20;;;9.90;26.60;;;;;;5047487;28;20458;-70
2021/03/07 11:10:06;;;;;;;6.93;3.40;;;9.70;27.00;;;;;;5047866;28;20604;-70
2021/03/07 11:12:32;;;;;;;6.03;3.28;;;9.70;26.90;;;;;;5048417;28;20086;-71
2021/03/07 11:14:58;;;;;;;;;;;9.50;27.50;;;;;;5048534;28;20032;-71
2021/03/07 11:17:24;;;;;;;7.10;3.00;;;9.40;27.70;;;;;;5048313;28;20306;-71
2021/03/07 11:19:49;;;;;;;;;;;9.30;27.80;;;;;;5048793;28;20539;-70
2021/03/07 11:22:15;;;;;;;6.38;3.35;;;9.20;28.20;;;;;;5046605;28;19980;-70
2021/03/07 11:24:41;;;;;;;7.85;3.90;;;9.20;28.10;;;;;;5047878;28;20678;-70
2021/03/07 11:27:07;;;;;;;6.97;3.63;;;9.40;27.60;;;;;;5046775;28;20037;-71
2021/03/07 11:29:32;;;;;;;;;;;9.60;28.20;;;;;;5048952;28;20067;-70
2021/03/07 11:31:58;;;;;;;9.85;4.50;;;9.60;28.00;;;;;;5046783;28;20366;-70
2021/03/07 11:34:23;;;;;;;;;;;9.50;27.90;;;;;;5048448;28;20104;-70
2021/03/07 11:36:49;;;;;;;7.38;3.83;;;9.40;28.00;;;;;;5046744;28;19905;-71
2021/03/07 11:39:15;;;;;;;;;;;9.30;28.10;;;;;;5048242;28;20021;-70
2021/03/07 11:41:40;;;;;;;12.88;4.95;;;9.20;28.40;;;;;;5045916;28;20374;-70
2021/03/07 11:44:06;;;;;;;8.52;4.78;;;9.20;28.50;;;;;;5048115;28;20036;-71
2021/03/07 11:46:32;;;;;;;;;;;9.10;28.50;;;;;;5047885;28;20045;-70
2021/03/07 11:48:57;;;;;;;10.45;5.13;;;9.20;28.90;;;;;;5047738;28;19958;-70
2021/03/07 11:51:23;;;;;;;10.00;5.55;;;9.10;28.70;;;;;;5047666;28;20097;-72
2021/03/07 11:53:49;;;;;;;10.13;5.50;;;9.00;28.90;;;;;;5047533;28;20036;-71
2021/03/07 11:56:14;;;;;;;8.60;5.15;;;8.90;29.10;;;;;;5045803;28;20032;-71
2021/03/07 11:58:40;;;;;;;12.10;4.93;;;9.00;29.60;;;;;;5047786;28;20570;-71
2021/03/07 12:01:05;;;;;;;8.80;4.72;;;9.10;30.00;;;;;;5046295;28;20033;-71
2021/03/07 12:03:31;;;;;;;;;;;9.00;29.20;;;;;;5048132;28;20468;-70
2021/03/07 12:05:56;;;;;;;9.38;5.45;;;8.90;29.50;;;;;;5045919;28;19909;-73
2021/03/07 12:08:22;;;;;;;;;;;8.80;29.90;;;;;;5047321;28;20508;-69
2021/03/07 12:10:48;;;;;;;10.38;5.47;;;8.90;30.50;;;;;;5047030;28;19917;-70
2021/03/07 12:13:13;;;;;;;;;;;8.90;30.70;;;;;;5048061;28;20040;-69
2021/03/07 12:15:39;;;;;;;11.60;6.22;;;8.90;30.00;;;;;;5047233;28;20411;-70
2021/03/07 12:18:05;;;;;;;21.88;6.28;;;9.00;29.90;;;;;;5047548;28;20496;-69
2021/03/07 12:20:30;;;;;;;11.25;5.10;;;8.90;30.10;;;;;;5047432;28;20507;-70
2021/03/07 12:22:56;;;;;;;;;;;8.90;29.90;;;;;;5045710;28;20025;-70
2021/03/07 12:25:22;;;;;;;10.88;4.60;;;8.90;29.80;;;;;;5044939;28;19909;-70
2021/03/07 12:27:47;;;;;;;10.43;4.70;;;8.90;29.30;;;;;;5047057;28;20401;-70
2021/03/07 12:30:14;;;;;;;8.68;5.28;;;9.10;29.20;;;;;;5047227;28;20083;-70
2021/03/07 12:32:39;;;;;;;11.07;4.97;;;9.00;29.20;;;;;;5045470;28;20040;-70
2021/03/07 12:35:06;;;;;;;16.15;4.13;;;9.00;29.80;;;;;;5046416;28;20036;-69
2021/03/07 12:37:31;;;;;;;7.60;3.65;;;9.00;30.00;;;;;;5046894;28;20029;-68
2021/03/07 12:39:57;;;;;;;8.20;4.68;;;9.10;29.50;;;;;;5046759;28;20204;-72
2021/03/07 12:42:22;;;;;;;;;;;9.20;29.00;;;;;;5046052;28;20493;-70
2021/03/07 12:44:48;;;;;;;10.20;5.07;;;9.20;29.40;;;;;;5046407;28;19962;-69
2021/03/07 12:47:13;;;;;;;8.57;4.97;;;9.20;29.60;;;;;;5046371;28;20043;-72
2021/03/07 12:49:39;;;;;;;9.98;5.38;;;9.30;29.20;;;;;;5046691;28;20556;-70
2021/03/07 12:52:05;;;;;;;;;;;9.30;29.40;;;;;;5046802;28;20039;-70
2021/03/07 12:54:30;;;;;;;7.45;3.97;;;9.40;29.50;;;;;;5046230;28;19905;-72
2021/03/07 12:56:56;;;;;;;9.27;4.80;;;9.50;29.10;;;;;;5046121;28;20029;-71
2021/03/07 12:59:21;;;;;;;;;;;9.50;28.90;;;;;;5046940;28;20456;-72
2021/03/07 13:01:47;;;;;;;6.75;4.07;;;9.50;29.10;;;;;;5044979;28;20118;-71
2021/03/07 13:04:13;;;;;;;13.77;4.78;;;9.60;28.80;;;;;;5046315;28;20025;-69